sensor_id;sensor_type;location;lat;lon;timestamp;P1;durP1;ratioP1;P2;durP2;ratioP2
24713;SDS011;12820;51.580;5.010;2024-02-21T00:03:07;38.85;;;15.80;;
24713;SDS011;12820;51.580;5.010;2024-02-21T00:08:09;31.20;;;15.60;;
24713;SDS011;12820;51.580;5.010;2024-02-21T00:13:32;35.17;;;16.23;;
24713;SDS011;12820;51.580;5.010;2024-02-21T00:18:34;31.88;;;15.00;;
24713;SDS011;12820;51.580;5.010;2024-02-21T00:23:36;29.38;;;14.98;;
24713;SDS011;12820;51.580;5.010;2024-02-21T00:28:39;28.02;;;15.23;;
24713;SDS011;12820;51.580;5.010;2024-02-21T00:33:41;25.40;;;14.45;;
24713;SDS011;12820;51.580;5.010;2024-02-21T00:38:44;29.80;;;15.02;;
24713;SDS011;12820;51.580;5.010;2024-02-21T00:43:46;34.65;;;16.17;;
24713;SDS011;12820;51.580;5.010;2024-02-21T00:48:51;36.33;;;16.63;;
24713;SDS011;12820;51.580;5.010;2024-02-21T00:53:53;34.47;;;15.90;;
24713;SDS011;12820;51.580;5.010;2024-02-21T00:58:57;31.75;;;14.52;;
24713;SDS011;12820;51.580;5.010;2024-02-21T01:03:59;26.40;;;14.55;;
24713;SDS011;12820;51.580;5.010;2024-02-21T01:09:02;31.60;;;15.73;;
24713;SDS011;12820;51.580;5.010;2024-02-21T01:14:04;28.80;;;14.70;;
24713;SDS011;12820;51.580;5.010;2024-02-21T01:19:06;33.28;;;14.55;;
24713;SDS011;12820;51.580;5.010;2024-02-21T01:24:08;29.52;;;14.45;;
24713;SDS011;12820;51.580;5.010;2024-02-21T01:29:11;28.55;;;13.95;;
24713;SDS011;12820;51.580;5.010;2024-02-21T01:34:13;26.88;;;12.93;;
24713;SDS011;12820;51.580;5.010;2024-02-21T01:39:15;29.20;;;13.65;;
24713;SDS011;12820;51.580;5.010;2024-02-21T01:44:18;27.30;;;12.35;;
24713;SDS011;12820;51.580;5.010;2024-02-21T01:49:20;27.88;;;12.38;;
24713;SDS011;12820;51.580;5.010;2024-02-21T01:54:23;25.80;;;12.10;;
24713;SDS011;12820;51.580;5.010;2024-02-21T01:59:30;26.35;;;11.68;;
24713;SDS011;12820;51.580;5.010;2024-02-21T02:04:32;26.50;;;11.23;;
24713;SDS011;12820;51.580;5.010;2024-02-21T02:09:36;20.08;;;11.57;;
24713;SDS011;12820;51.580;5.010;2024-02-21T02:14:39;21.42;;;11.45;;
24713;SDS011;12820;51.580;5.010;2024-02-21T02:19:41;22.10;;;10.70;;
24713;SDS011;12820;51.580;5.010;2024-02-21T02:24:43;25.55;;;10.98;;
24713;SDS011;12820;51.580;5.010;2024-02-21T02:29:46;29.35;;;11.27;;
24713;SDS011;12820;51.580;5.010;2024-02-21T02:34:48;21.80;;;10.77;;
24713;SDS011;12820;51.580;5.010;2024-02-21T02:39:50;24.95;;;11.20;;
24713;SDS011;12820;51.580;5.010;2024-02-21T02:44:52;20.90;;;10.52;;
24713;SDS011;12820;51.580;5.010;2024-02-21T02:49:55;24.48;;;10.43;;
24713;SDS011;12820;51.580;5.010;2024-02-21T02:54:57;22.13;;;10.65;;
24713;SDS011;12820;51.580;5.010;2024-02-21T03:00:00;21.80;;;9.82;;
24713;SDS011;12820;51.580;5.010;2024-02-21T03:05:02;24.67;;;10.90;;
24713;SDS011;12820;51.580;5.010;2024-02-21T03:10:17;16.15;;;10.15;;
24713;SDS011;12820;51.580;5.010;2024-02-21T03:15:20;22.60;;;10.38;;
24713;SDS011;12820;51.580;5.010;2024-02-21T03:20:22;21.65;;;10.70;;
24713;SDS011;12820;51.580;5.010;2024-02-21T03:25:25;21.13;;;11.52;;
24713;SDS011;12820;51.580;5.010;2024-02-21T03:30:27;28.25;;;11.70;;
24713;SDS011;12820;51.580;5.010;2024-02-21T03:35:29;25.70;;;11.48;;
24713;SDS011;12820;51.580;5.010;2024-02-21T03:40:31;26.15;;;12.18;;
24713;SDS011;12820;51.580;5.010;2024-02-21T03:45:33;22.85;;;12.07;;
24713;SDS011;12820;51.580;5.010;2024-02-21T03:50:35;25.75;;;13.02;;
24713;SDS011;12820;51.580;5.010;2024-02-21T03:55:38;29.10;;;12.82;;
24713;SDS011;12820;51.580;5.010;2024-02-21T04:00:40;31.42;;;13.93;;
24713;SDS011;12820;51.580;5.010;2024-02-21T04:05:44;24.90;;;12.32;;
24713;SDS011;12820;51.580;5.010;2024-02-21T04:10:47;26.85;;;14.05;;
24713;SDS011;12820;51.580;5.010;2024-02-21T04:15:49;30.25;;;14.35;;
24713;SDS011;12820;51.580;5.010;2024-02-21T04:20:51;30.50;;;14.70;;
24713;SDS011;12820;51.580;5.010;2024-02-21T04:25:54;31.23;;;14.57;;
24713;SDS011;12820;51.580;5.010;2024-02-21T04:30:56;31.90;;;15.20;;
24713;SDS011;12820;51.580;5.010;2024-02-21T04:35:58;30.40;;;15.13;;
24713;SDS011;12820;51.580;5.010;2024-02-21T04:41:02;32.72;;;14.68;;
24713;SDS011;12820;51.580;5.010;2024-02-21T04:46:04;35.63;;;15.43;;
24713;SDS011;12820;51.580;5.010;2024-02-21T04:51:06;27.38;;;14.85;;
24713;SDS011;12820;51.580;5.010;2024-02-21T04:56:08;30.77;;;14.88;;
24713;SDS011;12820;51.580;5.010;2024-02-21T05:01:11;32.60;;;14.07;;
24713;SDS011;12820;51.580;5.010;2024-02-21T05:06:13;31.92;;;14.32;;
24713;SDS011;12820;51.580;5.010;2024-02-21T05:11:15;23.08;;;13.75;;
24713;SDS011;12820;51.580;5.010;2024-02-21T05:16:18;23.45;;;13.50;;
24713;SDS011;12820;51.580;5.010;2024-02-21T05:21:21;24.95;;;13.77;;
24713;SDS011;12820;51.580;5.010;2024-02-21T05:26:25;26.23;;;12.55;;
24713;SDS011;12820;51.580;5.010;2024-02-21T05:36:53;32.33;;;13.38;;
24713;SDS011;12820;51.580;5.010;2024-02-21T05:41:55;24.50;;;13.50;;
24713;SDS011;12820;51.580;5.010;2024-02-21T05:46:58;30.10;;;13.00;;
24713;SDS011;12820;51.580;5.010;2024-02-21T05:52:00;29.20;;;13.48;;
24713;SDS011;12820;51.580;5.010;2024-02-21T05:57:02;23.70;;;12.90;;
24713;SDS011;12820;51.580;5.010;2024-02-21T06:02:04;24.70;;;12.80;;
24713;SDS011;12820;51.580;5.010;2024-02-21T06:07:07;28.25;;;13.00;;
24713;SDS011;12820;51.580;5.010;2024-02-21T06:12:09;26.85;;;13.20;;
24713;SDS011;12820;51.580;5.010;2024-02-21T06:17:11;27.98;;;13.95;;
24713;SDS011;12820;51.580;5.010;2024-02-21T06:22:13;32.10;;;13.98;;
24713;SDS011;12820;51.580;5.010;2024-02-21T06:27:16;26.55;;;14.07;;
24713;SDS011;12820;51.580;5.010;2024-02-21T06:32:19;25.92;;;14.05;;
24713;SDS011;12820;51.580;5.010;2024-02-21T06:37:21;31.77;;;14.18;;
24713;SDS011;12820;51.580;5.010;2024-02-21T06:42:26;28.63;;;13.57;;
24713;SDS011;12820;51.580;5.010;2024-02-21T06:47:28;33.83;;;14.73;;
24713;SDS011;12820;51.580;5.010;2024-02-21T06:52:30;28.42;;;14.57;;
24713;SDS011;12820;51.580;5.010;2024-02-21T06:57:33;25.58;;;14.27;;
24713;SDS011;12820;51.580;5.010;2024-02-21T07:02:35;35.25;;;13.38;;
24713;SDS011;12820;51.580;5.010;2024-02-21T07:07:37;27.58;;;13.68;;
24713;SDS011;12820;51.580;5.010;2024-02-21T07:12:39;28.55;;;13.48;;
24713;SDS011;12820;51.580;5.010;2024-02-21T07:17:47;26.40;;;13.73;;
24713;SDS011;12820;51.580;5.010;2024-02-21T07:22:50;25.85;;;13.43;;
24713;SDS011;12820;51.580;5.010;2024-02-21T07:27:52;26.65;;;14.40;;
24713;SDS011;12820;51.580;5.010;2024-02-21T07:32:55;24.92;;;13.65;;
24713;SDS011;12820;51.580;5.010;2024-02-21T07:37:57;24.00;;;13.60;;
24713;SDS011;12820;51.580;5.010;2024-02-21T07:42:59;24.52;;;13.13;;
24713;SDS011;12820;51.580;5.010;2024-02-21T07:48:01;26.20;;;13.10;;
24713;SDS011;12820;51.580;5.010;2024-02-21T07:53:04;22.50;;;13.25;;
24713;SDS011;12820;51.580;5.010;2024-02-21T07:58:06;26.30;;;12.95;;
24713;SDS011;12820;51.580;5.010;2024-02-21T08:03:09;25.13;;;13.18;;
24713;SDS011;12820;51.580;5.010;2024-02-21T08:08:12;26.05;;;13.25;;
24713;SDS011;12820;51.580;5.010;2024-02-21T08:13:20;24.55;;;12.73;;
24713;SDS011;12820;51.580;5.010;2024-02-21T08:18:22;22.98;;;12.55;;
24713;SDS011;12820;51.580;5.010;2024-02-21T08:23:25;23.63;;;12.43;;
24713;SDS011;12820;51.580;5.010;2024-02-21T08:28:27;20.98;;;11.82;;
24713;SDS011;12820;51.580;5.010;2024-02-21T08:33:33;18.67;;;11.13;;
24713;SDS011;12820;51.580;5.010;2024-02-21T08:38:35;21.85;;;11.15;;
24713;SDS011;12820;51.580;5.010;2024-02-21T08:43:38;18.30;;;11.02;;
24713;SDS011;12820;51.580;5.010;2024-02-21T08:48:40;17.98;;;10.35;;
24713;SDS011;12820;51.580;5.010;2024-02-21T08:53:46;15.43;;;10.45;;
24713;SDS011;12820;51.580;5.010;2024-02-21T08:58:49;16.65;;;9.65;;
24713;SDS011;12820;51.580;5.010;2024-02-21T09:03:52;17.23;;;9.40;;
24713;SDS011;12820;51.580;5.010;2024-02-21T09:08:56;14.57;;;9.30;;
24713;SDS011;12820;51.580;5.010;2024-02-21T09:14:00;19.83;;;10.25;;
24713;SDS011;12820;51.580;5.010;2024-02-21T09:19:03;15.65;;;9.35;;
24713;SDS011;12820;51.580;5.010;2024-02-21T09:24:06;16.60;;;9.73;;
24713;SDS011;12820;51.580;5.010;2024-02-21T09:29:08;16.00;;;10.13;;
24713;SDS011;12820;51.580;5.010;2024-02-21T09:34:11;13.85;;;10.63;;
24713;SDS011;12820;51.580;5.010;2024-02-21T09:39:13;17.60;;;12.13;;
24713;SDS011;12820;51.580;5.010;2024-02-21T09:44:19;18.50;;;12.23;;
24713;SDS011;12820;51.580;5.010;2024-02-21T09:49:34;17.00;;;12.73;;
24713;SDS011;12820;51.580;5.010;2024-02-21T09:54:40;16.52;;;11.43;;
24713;SDS011;12820;51.580;5.010;2024-02-21T09:59:47;16.88;;;11.98;;
24713;SDS011;12820;51.580;5.010;2024-02-21T10:04:49;22.25;;;11.38;;
24713;SDS011;12820;51.580;5.010;2024-02-21T10:10:02;18.92;;;12.07;;
24713;SDS011;12820;51.580;5.010;2024-02-21T10:15:05;16.05;;;10.77;;
24713;SDS011;12820;51.580;5.010;2024-02-21T10:20:08;13.88;;;10.20;;
24713;SDS011;12820;51.580;5.010;2024-02-21T10:25:12;16.67;;;10.98;;
24713;SDS011;12820;51.580;5.010;2024-02-21T10:30:14;14.80;;;10.25;;
24713;SDS011;12820;51.580;5.010;2024-02-21T10:35:30;16.08;;;10.90;;
24713;SDS011;12820;51.580;5.010;2024-02-21T10:40:33;18.77;;;10.98;;
24713;SDS011;12820;51.580;5.010;2024-02-21T10:45:36;16.77;;;10.07;;
24713;SDS011;12820;51.580;5.010;2024-02-21T11:01:24;14.63;;;9.82;;
24713;SDS011;12820;51.580;5.010;2024-02-21T11:06:29;14.85;;;8.65;;
24713;SDS011;12820;51.580;5.010;2024-02-21T11:11:43;16.38;;;9.20;;
24713;SDS011;12820;51.580;5.010;2024-02-21T11:16:46;13.60;;;8.38;;
24713;SDS011;12820;51.580;5.010;2024-02-21T11:21:52;13.15;;;8.50;;
24713;SDS011;12820;51.580;5.010;2024-02-21T11:27:45;15.77;;;8.75;;
24713;SDS011;12820;51.580;5.010;2024-02-21T11:32:24;13.70;;;8.30;;
24713;SDS011;12820;51.580;5.010;2024-02-21T11:37:27;12.48;;;7.75;;
24713;SDS011;12820;51.580;5.010;2024-02-21T11:42:30;13.00;;;7.75;;
24713;SDS011;12820;51.580;5.010;2024-02-21T11:53:24;10.80;;;7.18;;
24713;SDS011;12820;51.580;5.010;2024-02-21T12:06:03;12.50;;;7.22;;
24713;SDS011;12820;51.580;5.010;2024-02-21T12:18:05;10.30;;;6.88;;
24713;SDS011;12820;51.580;5.010;2024-02-21T12:23:12;13.23;;;7.30;;
24713;SDS011;12820;51.580;5.010;2024-02-21T12:28:17;13.23;;;6.32;;
24713;SDS011;12820;51.580;5.010;2024-02-21T12:33:21;13.05;;;6.93;;
24713;SDS011;12820;51.580;5.010;2024-02-21T12:38:24;13.45;;;7.03;;
24713;SDS011;12820;51.580;5.010;2024-02-21T12:43:26;15.60;;;6.97;;
24713;SDS011;12820;51.580;5.010;2024-02-21T12:48:29;13.05;;;7.28;;
24713;SDS011;12820;51.580;5.010;2024-02-21T12:53:31;13.93;;;6.45;;
24713;SDS011;12820;51.580;5.010;2024-02-21T12:58:35;13.95;;;6.82;;
24713;SDS011;12820;51.580;5.010;2024-02-21T13:03:37;12.18;;;6.72;;
24713;SDS011;12820;51.580;5.010;2024-02-21T13:08:40;11.95;;;6.22;;
24713;SDS011;12820;51.580;5.010;2024-02-21T13:13:43;11.15;;;6.28;;
24713;SDS011;12820;51.580;5.010;2024-02-21T13:18:46;15.02;;;5.60;;
24713;SDS011;12820;51.580;5.010;2024-02-21T13:23:49;11.10;;;5.30;;
24713;SDS011;12820;51.580;5.010;2024-02-21T13:28:52;12.55;;;5.32;;
24713;SDS011;12820;51.580;5.010;2024-02-21T13:33:55;11.80;;;5.43;;
24713;SDS011;12820;51.580;5.010;2024-02-21T13:38:57;12.88;;;6.00;;
24713;SDS011;12820;51.580;5.010;2024-02-21T13:43:59;14.23;;;5.70;;
24713;SDS011;12820;51.580;5.010;2024-02-21T13:49:03;9.00;;;5.45;;
24713;SDS011;12820;51.580;5.010;2024-02-21T13:54:10;11.32;;;6.03;;
24713;SDS011;12820;51.580;5.010;2024-02-21T13:59:13;13.13;;;5.80;;
24713;SDS011;12820;51.580;5.010;2024-02-21T14:04:15;11.73;;;5.88;;
24713;SDS011;12820;51.580;5.010;2024-02-21T14:09:18;9.05;;;5.75;;
24713;SDS011;12820;51.580;5.010;2024-02-21T14:14:21;14.45;;;6.65;;
24713;SDS011;12820;51.580;5.010;2024-02-21T14:19:23;11.73;;;6.45;;
24713;SDS011;12820;51.580;5.010;2024-02-21T14:24:26;13.65;;;6.72;;
24713;SDS011;12820;51.580;5.010;2024-02-21T14:29:29;13.40;;;7.43;;
24713;SDS011;12820;51.580;5.010;2024-02-21T14:34:31;14.55;;;7.75;;
24713;SDS011;12820;51.580;5.010;2024-02-21T14:39:34;11.45;;;6.65;;
24713;SDS011;12820;51.580;5.010;2024-02-21T14:44:37;13.95;;;7.07;;
24713;SDS011;12820;51.580;5.010;2024-02-21T14:49:39;12.43;;;6.88;;
24713;SDS011;12820;51.580;5.010;2024-02-21T14:54:42;17.85;;;7.20;;
24713;SDS011;12820;51.580;5.010;2024-02-21T14:59:48;13.48;;;7.43;;
24713;SDS011;12820;51.580;5.010;2024-02-21T15:04:58;14.98;;;7.53;;
24713;SDS011;12820;51.580;5.010;2024-02-21T15:10:00;12.65;;;8.05;;
24713;SDS011;12820;51.580;5.010;2024-02-21T15:15:04;15.38;;;7.70;;
24713;SDS011;12820;51.580;5.010;2024-02-21T15:20:07;21.50;;;8.20;;
24713;SDS011;12820;51.580;5.010;2024-02-21T15:25:11;14.07;;;8.00;;
24713;SDS011;12820;51.580;5.010;2024-02-21T15:30:17;12.73;;;7.82;;
24713;SDS011;12820;51.580;5.010;2024-02-21T15:35:20;15.82;;;8.15;;
24713;SDS011;12820;51.580;5.010;2024-02-21T15:40:22;18.13;;;8.35;;
24713;SDS011;12820;51.580;5.010;2024-02-21T15:45:25;15.13;;;8.65;;
24713;SDS011;12820;51.580;5.010;2024-02-21T15:50:27;14.57;;;8.88;;
24713;SDS011;12820;51.580;5.010;2024-02-21T15:55:31;15.90;;;8.75;;
24713;SDS011;12820;51.580;5.010;2024-02-21T16:26:02;16.88;;;9.70;;
24713;SDS011;12820;51.580;5.010;2024-02-21T16:31:38;20.70;;;10.30;;
24713;SDS011;12820;51.580;5.010;2024-02-21T16:37:45;18.55;;;9.88;;
24713;SDS011;12820;51.580;5.010;2024-02-21T16:43:58;17.60;;;9.82;;
24713;SDS011;12820;51.580;5.010;2024-02-21T16:49:00;13.38;;;9.85;;
24713;SDS011;12820;51.580;5.010;2024-02-21T16:54:03;19.48;;;10.32;;
24713;SDS011;12820;51.580;5.010;2024-02-21T16:59:11;13.82;;;10.30;;
24713;SDS011;12820;51.580;5.010;2024-02-21T17:04:14;16.98;;;10.40;;
24713;SDS011;12820;51.580;5.010;2024-02-21T17:09:16;18.45;;;11.20;;
24713;SDS011;12820;51.580;5.010;2024-02-21T17:14:20;15.48;;;10.68;;
24713;SDS011;12820;51.580;5.010;2024-02-21T17:19:24;18.70;;;10.88;;
24713;SDS011;12820;51.580;5.010;2024-02-21T17:24:26;19.30;;;11.27;;
24713;SDS011;12820;51.580;5.010;2024-02-21T17:29:28;21.63;;;12.38;;
24713;SDS011;12820;51.580;5.010;2024-02-21T17:34:30;19.98;;;11.98;;
24713;SDS011;12820;51.580;5.010;2024-02-21T17:39:34;14.68;;;10.95;;
24713;SDS011;12820;51.580;5.010;2024-02-21T17:44:36;18.48;;;11.15;;
24713;SDS011;12820;51.580;5.010;2024-02-21T17:56:11;17.30;;;12.60;;
24713;SDS011;12820;51.580;5.010;2024-02-21T18:01:13;17.83;;;12.43;;
24713;SDS011;12820;51.580;5.010;2024-02-21T18:06:15;17.27;;;11.50;;
24713;SDS011;12820;51.580;5.010;2024-02-21T18:11:23;16.45;;;11.20;;
24713;SDS011;12820;51.580;5.010;2024-02-21T18:17:04;23.88;;;12.45;;
24713;SDS011;12820;51.580;5.010;2024-02-21T18:37:13;15.23;;;12.00;;
24713;SDS011;12820;51.580;5.010;2024-02-21T18:42:17;16.40;;;11.73;;
24713;SDS011;12820;51.580;5.010;2024-02-21T18:47:20;15.45;;;11.27;;
24713;SDS011;12820;51.580;5.010;2024-02-21T18:52:22;19.48;;;12.68;;
24713;SDS011;12820;51.580;5.010;2024-02-21T18:57:24;15.55;;;11.65;;
24713;SDS011;12820;51.580;5.010;2024-02-21T19:02:26;17.52;;;11.90;;
24713;SDS011;12820;51.580;5.010;2024-02-21T19:07:29;16.27;;;12.85;;
24713;SDS011;12820;51.580;5.010;2024-02-21T19:12:33;17.45;;;12.40;;
24713;SDS011;12820;51.580;5.010;2024-02-21T19:17:36;17.42;;;11.77;;
24713;SDS011;12820;51.580;5.010;2024-02-21T19:22:39;15.00;;;11.35;;
24713;SDS011;12820;51.580;5.010;2024-02-21T19:27:43;15.57;;;11.65;;
24713;SDS011;12820;51.580;5.010;2024-02-21T19:32:45;15.82;;;12.07;;
24713;SDS011;12820;51.580;5.010;2024-02-21T19:37:48;16.33;;;12.07;;
24713;SDS011;12820;51.580;5.010;2024-02-21T19:42:51;16.02;;;12.07;;
24713;SDS011;12820;51.580;5.010;2024-02-21T19:47:53;16.67;;;12.30;;
24713;SDS011;12820;51.580;5.010;2024-02-21T19:52:56;16.35;;;11.77;;
24713;SDS011;12820;51.580;5.010;2024-02-21T19:57:58;17.63;;;11.88;;
24713;SDS011;12820;51.580;5.010;2024-02-21T20:03:01;15.98;;;12.15;;
24713;SDS011;12820;51.580;5.010;2024-02-21T20:08:05;16.73;;;11.52;;
24713;SDS011;12820;51.580;5.010;2024-02-21T20:13:08;16.75;;;11.52;;
24713;SDS011;12820;51.580;5.010;2024-02-21T20:18:10;13.48;;;11.30;;
24713;SDS011;12820;51.580;5.010;2024-02-21T20:23:14;14.63;;;12.38;;
24713;SDS011;12820;51.580;5.010;2024-02-21T20:28:17;14.32;;;11.32;;
24713;SDS011;12820;51.580;5.010;2024-02-21T20:33:20;17.05;;;10.85;;
24713;SDS011;12820;51.580;5.010;2024-02-21T20:38:22;17.02;;;11.80;;
24713;SDS011;12820;51.580;5.010;2024-02-21T20:43:24;13.95;;;11.40;;
24713;SDS011;12820;51.580;5.010;2024-02-21T20:48:26;13.13;;;10.95;;
24713;SDS011;12820;51.580;5.010;2024-02-21T20:53:29;17.23;;;11.93;;
24713;SDS011;12820;51.580;5.010;2024-02-21T20:58:31;12.68;;;11.38;;
24713;SDS011;12820;51.580;5.010;2024-02-21T21:03:33;13.07;;;11.68;;
24713;SDS011;12820;51.580;5.010;2024-02-21T21:08:36;14.63;;;12.88;;
24713;SDS011;12820;51.580;5.010;2024-02-21T21:13:38;13.43;;;11.93;;
24713;SDS011;12820;51.580;5.010;2024-02-21T21:18:41;13.52;;;12.13;;
24713;SDS011;12820;51.580;5.010;2024-02-21T21:23:43;15.00;;;12.05;;
24713;SDS011;12820;51.580;5.010;2024-02-21T21:28:46;16.17;;;11.77;;
24713;SDS011;12820;51.580;5.010;2024-02-21T21:33:48;15.52;;;12.68;;
24713;SDS011;12820;51.580;5.010;2024-02-21T21:38:51;15.48;;;13.70;;
24713;SDS011;12820;51.580;5.010;2024-02-21T21:43:55;14.65;;;12.82;;
24713;SDS011;12820;51.580;5.010;2024-02-21T21:48:57;15.13;;;12.82;;
24713;SDS011;12820;51.580;5.010;2024-02-21T21:54:00;16.38;;;13.55;;
24713;SDS011;12820;51.580;5.010;2024-02-21T21:59:02;18.98;;;13.60;;
24713;SDS011;12820;51.580;5.010;2024-02-21T22:04:07;17.92;;;14.48;;
24713;SDS011;12820;51.580;5.010;2024-02-21T22:09:09;17.90;;;14.57;;
24713;SDS011;12820;51.580;5.010;2024-02-21T22:14:12;17.17;;;15.25;;
24713;SDS011;12820;51.580;5.010;2024-02-21T22:19:14;17.63;;;15.25;;
24713;SDS011;12820;51.580;5.010;2024-02-21T22:24:16;18.70;;;15.02;;
24713;SDS011;12820;51.580;5.010;2024-02-21T22:29:20;17.48;;;15.25;;
24713;SDS011;12820;51.580;5.010;2024-02-21T22:34:24;15.98;;;14.05;;
24713;SDS011;12820;51.580;5.010;2024-02-21T22:39:27;18.40;;;16.00;;
24713;SDS011;12820;51.580;5.010;2024-02-21T22:44:29;22.02;;;16.33;;
24713;SDS011;12820;51.580;5.010;2024-02-21T22:49:31;20.05;;;16.17;;
24713;SDS011;12820;51.580;5.010;2024-02-21T22:54:33;20.63;;;17.10;;
24713;SDS011;12820;51.580;5.010;2024-02-21T22:59:36;24.38;;;16.85;;
24713;SDS011;12820;51.580;5.010;2024-02-21T23:04:38;22.17;;;17.30;;
24713;SDS011;12820;51.580;5.010;2024-02-21T23:09:40;22.10;;;17.77;;
24713;SDS011;12820;51.580;5.010;2024-02-21T23:14:42;21.17;;;17.73;;
24713;SDS011;12820;51.580;5.010;2024-02-21T23:19:45;21.88;;;17.58;;
24713;SDS011;12820;51.580;5.010;2024-02-21T23:24:47;23.17;;;17.98;;
24713;SDS011;12820;51.580;5.010;2024-02-21T23:29:49;22.35;;;17.38;;
24713;SDS011;12820;51.580;5.010;2024-02-21T23:34:51;21.80;;;17.95;;
24713;SDS011;12820;51.580;5.010;2024-02-21T23:39:54;20.88;;;17.60;;
24713;SDS011;12820;51.580;5.010;2024-02-21T23:44:56;22.63;;;17.77;;
24713;SDS011;12820;51.580;5.010;2024-02-21T23:49:58;22.17;;;18.75;;
24713;SDS011;12820;51.580;5.010;2024-02-21T23:55:00;23.00;;;17.38;;
